首页
METAR-TAF:

METAR-TAF

机场 :

伯力新机场

伯力, 俄罗斯

纬度: 48-31N, 经度: 135-10E, 海拔: 72米

当前天气观测

该预报发布于13分钟前的17:30 UTC
风速2节,风向多变
温度 12°C
湿度 88%
气压 997 hPa
能见度10公里或以上
1500米以下无云,无积雨云

METAR: UHHH 241730Z VRB01MPS CAVOK 12/10 Q0997 R23L/090060 NOSIG RMK QFE741/0988

时间: 03:43 (17:43 UTC)

预报

该预报发布于57分钟前的16:46 UTC
预报有效从24日的 18点(UTC)到 25日的 24点(UTC)
风速6节,风向东南
能见度10公里或以上
1500米以下无云,无积雨云
从 24日的 2100点(UTC)
风速12节,风向西南
能见度10公里或以上
散云层高于3000英尺, 积雨云.
短暂存在
从 25日的 01点(UTC)到 25日的 09点(UTC)
风速14节,风向西转西南,有时为23节阵风

TAF: UHHH 241646Z 2418/2524 13003MPS CAVOK FM242100 23006MPS 9999 SCT030CB TEMPO 2501/2509 25007G12MPS

超过4000个机场的气象观测和天气预报(METAR&TAF报告)。

可查询的气象台以黄色和红色小点在地图上表示。

将鼠标移到小点上方,可查看气象台名称。

然后点击查看天气观测和预报。

如需切换地图:点击带黑十字的绿色按钮放大地图;点击带横线的绿色按钮缩小地图;或者点击绿色箭头查看邻近地区的地图。


METAR-TAF: